Charlottetown, Prince Edward Island

6:57 PM ADT on March 24, 2017 (GMT -0300)
Charlottetown | | Change Station

Elev 177 ft 46.28 °N, 63.13 °W | Updated 7 minutes ago

Overcast
Overcast
27 °F
Feels Like 15 °F
N
15
Wind Variable Wind from SW
Gusts 21 mph

Today
High -- | Low -- °F
--% Chance of Precip.
Yesterday
High -- | Low -- °F
Precip. -- in
Pressure 30.24 in
Visibility 15.0 miles
Clouds Few 4000 ft
Overcast 8400 ft
Windchill 15 °F
Dew Point 18 °F
Humidity 69%
Rainfall 0.00 in
Snow Depth Not available.
7:07 AM 7:30 PM
Waning Crescent, 12% visible
SPECI CYYG 242150Z 22013G18KT 15SM FEW040 OVC084 M03/M08 A3022 RMK NS2AS6 SLP239
Pressure 30.24 in
Visibility 15.0 miles
Clouds Few 4000 ft
Overcast 8400 ft
Windchill 15 °F
Dew Point 18 °F
Humidity 69%
Rainfall 0.00 in
Snow Depth Not available.
7:07 AM 7:30 PM
Waning Crescent, 12% visible
SPECI CYYG 242150Z 22013G18KT 15SM FEW040 OVC084 M03/M08 A3022 RMK NS2AS6 SLP239

Get Severe Weather Alerts

Thanks for signing up!

Be on the lookout for a verification email in your inbox.

You'll start receiving the daily forecast at 8 AM.

×

10-Day Weather Forecast

Almanac

Astronomy

Mar. 24, 2017 Rise Set
Actual Time
Civil Twilight
Nautical Twilight
Astronomical Twilight
Moon
Length of Visible Light
Length of Day
Tomorrow will be .
, % of the Moon is Illuminated

Today's Extremes

Country Highs Country Lows

Community

WunderPhotos

Upload Photos

1,962,540 photos uploaded!

WunderBlog® & News

Nearby

Air Quality

  Air Quality AQ Index Pollutant
Not available.

Snow Depth

Station Depth Elevation

Earthquake Activity

City Distance Mag. Time & Date
Minimum magnitude displayed is 2.5.

Earthquake Activity

City Distance Mag. Time & Date
Minimum magnitude displayed is 2.5.

Coastal Water Temperatures

Place Temperature

Stations

Nearby Weather Stations

Station Location Temp. Windchill Dew Point Humidity Wind Precip. Elev Updated Type
                   

Watches & Warnings

There are currently no watches in effect.